sensor_id;sensor_type;location;lat;lon;timestamp;P1;durP1;ratioP1;P2;durP2;ratioP2
17574;SDS011;8906;43.590;1.418;2023-05-07T00:00:47;7.45;;;5.30;;
17574;SDS011;8906;43.590;1.418;2023-05-07T00:03:16;5.32;;;4.82;;
17574;SDS011;8906;43.590;1.418;2023-05-07T00:05:44;8.50;;;6.60;;
17574;SDS011;8906;43.590;1.418;2023-05-07T00:08:11;7.07;;;5.32;;
17574;SDS011;8906;43.590;1.418;2023-05-07T00:10:38;7.57;;;4.75;;
17574;SDS011;8906;43.590;1.418;2023-05-07T00:13:05;8.73;;;4.68;;
17574;SDS011;8906;43.590;1.418;2023-05-07T00:15:33;7.03;;;5.72;;
17574;SDS011;8906;43.590;1.418;2023-05-07T00:18:00;4.70;;;4.30;;
17574;SDS011;8906;43.590;1.418;2023-05-07T00:20:28;13.30;;;4.85;;
17574;SDS011;8906;43.590;1.418;2023-05-07T00:22:55;6.68;;;4.35;;
17574;SDS011;8906;43.590;1.418;2023-05-07T00:25:22;7.15;;;4.13;;
17574;SDS011;8906;43.590;1.418;2023-05-07T00:27:49;7.68;;;5.10;;
17574;SDS011;8906;43.590;1.418;2023-05-07T00:30:16;5.10;;;4.60;;
17574;SDS011;8906;43.590;1.418;2023-05-07T00:32:43;6.38;;;5.22;;
17574;SDS011;8906;43.590;1.418;2023-05-07T00:35:11;7.30;;;5.50;;
17574;SDS011;8906;43.590;1.418;2023-05-07T00:37:39;6.13;;;5.15;;
17574;SDS011;8906;43.590;1.418;2023-05-07T00:40:07;6.43;;;4.15;;
17574;SDS011;8906;43.590;1.418;2023-05-07T00:42:34;9.80;;;5.30;;
17574;SDS011;8906;43.590;1.418;2023-05-07T00:45:01;5.75;;;4.40;;
17574;SDS011;8906;43.590;1.418;2023-05-07T00:47:29;13.15;;;4.72;;
17574;SDS011;8906;43.590;1.418;2023-05-07T00:49:56;13.05;;;4.70;;
17574;SDS011;8906;43.590;1.418;2023-05-07T00:52:23;5.45;;;4.95;;
17574;SDS011;8906;43.590;1.418;2023-05-07T00:54:53;7.70;;;5.72;;
17574;SDS011;8906;43.590;1.418;2023-05-07T00:57:21;6.13;;;5.22;;
17574;SDS011;8906;43.590;1.418;2023-05-07T00:59:50;9.02;;;4.22;;
17574;SDS011;8906;43.590;1.418;2023-05-07T01:02:18;7.10;;;5.35;;
17574;SDS011;8906;43.590;1.418;2023-05-07T01:04:45;6.95;;;4.65;;
17574;SDS011;8906;43.590;1.418;2023-05-07T01:07:12;7.57;;;5.55;;
17574;SDS011;8906;43.590;1.418;2023-05-07T01:09:39;5.70;;;4.60;;
17574;SDS011;8906;43.590;1.418;2023-05-07T01:12:08;5.38;;;4.20;;
17574;SDS011;8906;43.590;1.418;2023-05-07T01:14:35;6.15;;;3.92;;
17574;SDS011;8906;43.590;1.418;2023-05-07T01:17:02;8.15;;;4.97;;
17574;SDS011;8906;43.590;1.418;2023-05-07T01:19:29;9.80;;;4.28;;
17574;SDS011;8906;43.590;1.418;2023-05-07T01:22:01;6.95;;;4.30;;
17574;SDS011;8906;43.590;1.418;2023-05-07T01:24:32;8.82;;;5.00;;
17574;SDS011;8906;43.590;1.418;2023-05-07T01:26:59;7.05;;;4.03;;
17574;SDS011;8906;43.590;1.418;2023-05-07T01:29:27;11.63;;;4.38;;
17574;SDS011;8906;43.590;1.418;2023-05-07T01:31:54;7.45;;;4.30;;
17574;SDS011;8906;43.590;1.418;2023-05-07T01:34:24;8.15;;;4.72;;
17574;SDS011;8906;43.590;1.418;2023-05-07T01:36:52;6.65;;;4.07;;
17574;SDS011;8906;43.590;1.418;2023-05-07T01:39:20;8.23;;;3.92;;
17574;SDS011;8906;43.590;1.418;2023-05-07T01:41:50;6.97;;;3.80;;
17574;SDS011;8906;43.590;1.418;2023-05-07T01:44:17;5.80;;;3.67;;
17574;SDS011;8906;43.590;1.418;2023-05-07T01:46:45;6.53;;;3.95;;
17574;SDS011;8906;43.590;1.418;2023-05-07T01:49:14;3.95;;;3.50;;
17574;SDS011;8906;43.590;1.418;2023-05-07T01:51:41;4.32;;;3.60;;
17574;SDS011;8906;43.590;1.418;2023-05-07T01:54:08;3.65;;;3.25;;
17574;SDS011;8906;43.590;1.418;2023-05-07T01:56:36;6.07;;;3.55;;
17574;SDS011;8906;43.590;1.418;2023-05-07T01:59:04;9.90;;;4.60;;
17574;SDS011;8906;43.590;1.418;2023-05-07T02:01:31;7.75;;;4.55;;
17574;SDS011;8906;43.590;1.418;2023-05-07T02:03:58;4.13;;;3.78;;
17574;SDS011;8906;43.590;1.418;2023-05-07T02:06:25;5.55;;;3.25;;
17574;SDS011;8906;43.590;1.418;2023-05-07T02:08:52;8.10;;;3.67;;
17574;SDS011;8906;43.590;1.418;2023-05-07T02:11:18;9.15;;;3.97;;
17574;SDS011;8906;43.590;1.418;2023-05-07T02:13:46;9.20;;;4.47;;
17574;SDS011;8906;43.590;1.418;2023-05-07T02:16:14;9.85;;;3.88;;
17574;SDS011;8906;43.590;1.418;2023-05-07T02:18:41;7.13;;;3.95;;
17574;SDS011;8906;43.590;1.418;2023-05-07T02:21:08;8.15;;;4.22;;
17574;SDS011;8906;43.590;1.418;2023-05-07T02:23:35;9.73;;;4.50;;
17574;SDS011;8906;43.590;1.418;2023-05-07T02:26:03;5.85;;;3.85;;
17574;SDS011;8906;43.590;1.418;2023-05-07T02:28:30;8.07;;;3.92;;
17574;SDS011;8906;43.590;1.418;2023-05-07T02:30:57;4.97;;;3.03;;
17574;SDS011;8906;43.590;1.418;2023-05-07T02:33:26;8.68;;;4.10;;
17574;SDS011;8906;43.590;1.418;2023-05-07T02:35:53;8.90;;;4.78;;
17574;SDS011;8906;43.590;1.418;2023-05-07T02:38:21;6.85;;;3.05;;
17574;SDS011;8906;43.590;1.418;2023-05-07T02:40:49;7.97;;;3.53;;
17574;SDS011;8906;43.590;1.418;2023-05-07T02:43:15;10.30;;;3.63;;
17574;SDS011;8906;43.590;1.418;2023-05-07T02:45:42;8.80;;;4.20;;
17574;SDS011;8906;43.590;1.418;2023-05-07T02:48:09;7.97;;;3.92;;
17574;SDS011;8906;43.590;1.418;2023-05-07T02:50:38;9.90;;;3.58;;
17574;SDS011;8906;43.590;1.418;2023-05-07T02:53:04;5.53;;;3.72;;
17574;SDS011;8906;43.590;1.418;2023-05-07T02:55:31;11.95;;;4.18;;
17574;SDS011;8906;43.590;1.418;2023-05-07T02:57:58;11.50;;;4.13;;
17574;SDS011;8906;43.590;1.418;2023-05-07T03:00:25;8.57;;;3.35;;
17574;SDS011;8906;43.590;1.418;2023-05-07T03:02:52;13.48;;;3.97;;
17574;SDS011;8906;43.590;1.418;2023-05-07T03:05:19;7.32;;;3.63;;
17574;SDS011;8906;43.590;1.418;2023-05-07T03:07:47;11.70;;;4.07;;
17574;SDS011;8906;43.590;1.418;2023-05-07T03:10:15;9.00;;;4.40;;
17574;SDS011;8906;43.590;1.418;2023-05-07T03:12:41;9.25;;;4.10;;
17574;SDS011;8906;43.590;1.418;2023-05-07T03:15:09;7.47;;;3.42;;
17574;SDS011;8906;43.590;1.418;2023-05-07T03:17:37;11.35;;;4.30;;
17574;SDS011;8906;43.590;1.418;2023-05-07T03:20:05;8.82;;;3.40;;
17574;SDS011;8906;43.590;1.418;2023-05-07T03:22:33;11.48;;;4.35;;
17574;SDS011;8906;43.590;1.418;2023-05-07T03:25:01;6.47;;;3.92;;
17574;SDS011;8906;43.590;1.418;2023-05-07T03:27:29;7.85;;;4.13;;
17574;SDS011;8906;43.590;1.418;2023-05-07T03:29:56;6.82;;;4.20;;
17574;SDS011;8906;43.590;1.418;2023-05-07T03:32:23;7.57;;;3.88;;
17574;SDS011;8906;43.590;1.418;2023-05-07T03:34:50;10.77;;;3.67;;
17574;SDS011;8906;43.590;1.418;2023-05-07T03:37:17;5.35;;;3.65;;
17574;SDS011;8906;43.590;1.418;2023-05-07T03:39:45;4.75;;;3.40;;
17574;SDS011;8906;43.590;1.418;2023-05-07T03:42:13;11.27;;;3.70;;
17574;SDS011;8906;43.590;1.418;2023-05-07T03:44:41;6.88;;;3.22;;
17574;SDS011;8906;43.590;1.418;2023-05-07T03:47:08;9.52;;;3.80;;
17574;SDS011;8906;43.590;1.418;2023-05-07T03:49:35;6.30;;;3.28;;
17574;SDS011;8906;43.590;1.418;2023-05-07T03:52:03;8.13;;;3.85;;
17574;SDS011;8906;43.590;1.418;2023-05-07T03:54:30;9.15;;;3.38;;
17574;SDS011;8906;43.590;1.418;2023-05-07T03:56:57;8.13;;;3.80;;
17574;SDS011;8906;43.590;1.418;2023-05-07T03:59:26;8.88;;;3.85;;
17574;SDS011;8906;43.590;1.418;2023-05-07T04:01:53;10.15;;;4.25;;
17574;SDS011;8906;43.590;1.418;2023-05-07T04:04:20;9.82;;;3.90;;
17574;SDS011;8906;43.590;1.418;2023-05-07T04:06:47;5.82;;;3.83;;
17574;SDS011;8906;43.590;1.418;2023-05-07T04:09:13;9.82;;;4.30;;
17574;SDS011;8906;43.590;1.418;2023-05-07T04:11:40;7.70;;;3.42;;
17574;SDS011;8906;43.590;1.418;2023-05-07T04:14:07;6.82;;;3.55;;
17574;SDS011;8906;43.590;1.418;2023-05-07T04:16:35;8.60;;;4.47;;
17574;SDS011;8906;43.590;1.418;2023-05-07T04:19:02;6.60;;;2.95;;
17574;SDS011;8906;43.590;1.418;2023-05-07T04:21:29;7.32;;;2.97;;
17574;SDS011;8906;43.590;1.418;2023-05-07T04:23:56;13.48;;;3.92;;
17574;SDS011;8906;43.590;1.418;2023-05-07T04:26:23;8.38;;;3.75;;
17574;SDS011;8906;43.590;1.418;2023-05-07T04:28:50;7.22;;;3.70;;
17574;SDS011;8906;43.590;1.418;2023-05-07T04:31:17;10.45;;;4.25;;
17574;SDS011;8906;43.590;1.418;2023-05-07T04:33:46;6.00;;;2.95;;
17574;SDS011;8906;43.590;1.418;2023-05-07T04:36:13;9.88;;;3.25;;
17574;SDS011;8906;43.590;1.418;2023-05-07T04:38:40;11.65;;;4.70;;
17574;SDS011;8906;43.590;1.418;2023-05-07T04:41:08;6.53;;;3.50;;
17574;SDS011;8906;43.590;1.418;2023-05-07T04:43:35;5.60;;;2.97;;
17574;SDS011;8906;43.590;1.418;2023-05-07T04:46:02;5.28;;;3.80;;
17574;SDS011;8906;43.590;1.418;2023-05-07T04:48:29;7.55;;;3.97;;
17574;SDS011;8906;43.590;1.418;2023-05-07T04:50:58;10.65;;;3.63;;
17574;SDS011;8906;43.590;1.418;2023-05-07T04:53:25;12.73;;;4.00;;
17574;SDS011;8906;43.590;1.418;2023-05-07T04:55:54;6.32;;;2.67;;
17574;SDS011;8906;43.590;1.418;2023-05-07T04:58:22;6.03;;;3.65;;
17574;SDS011;8906;43.590;1.418;2023-05-07T05:00:49;9.40;;;3.38;;
17574;SDS011;8906;43.590;1.418;2023-05-07T05:03:16;4.95;;;3.25;;
17574;SDS011;8906;43.590;1.418;2023-05-07T05:05:43;13.77;;;4.43;;
17574;SDS011;8906;43.590;1.418;2023-05-07T05:08:12;7.47;;;3.90;;
17574;SDS011;8906;43.590;1.418;2023-05-07T05:10:39;7.78;;;4.32;;
17574;SDS011;8906;43.590;1.418;2023-05-07T05:13:06;13.30;;;4.30;;
17574;SDS011;8906;43.590;1.418;2023-05-07T05:15:34;8.73;;;3.58;;
17574;SDS011;8906;43.590;1.418;2023-05-07T05:18:01;7.43;;;3.88;;
17574;SDS011;8906;43.590;1.418;2023-05-07T05:20:28;10.75;;;3.03;;
17574;SDS011;8906;43.590;1.418;2023-05-07T05:22:54;8.75;;;3.40;;
17574;SDS011;8906;43.590;1.418;2023-05-07T05:25:23;10.82;;;3.53;;
17574;SDS011;8906;43.590;1.418;2023-05-07T05:27:50;5.72;;;3.60;;
17574;SDS011;8906;43.590;1.418;2023-05-07T05:30:17;8.45;;;3.97;;
17574;SDS011;8906;43.590;1.418;2023-05-07T05:32:43;5.30;;;2.95;;
17574;SDS011;8906;43.590;1.418;2023-05-07T05:35:10;10.80;;;4.25;;
17574;SDS011;8906;43.590;1.418;2023-05-07T05:37:37;8.52;;;3.28;;
17574;SDS011;8906;43.590;1.418;2023-05-07T05:40:05;8.65;;;3.50;;
17574;SDS011;8906;43.590;1.418;2023-05-07T05:42:34;7.28;;;3.55;;
17574;SDS011;8906;43.590;1.418;2023-05-07T05:45:00;7.50;;;4.22;;
17574;SDS011;8906;43.590;1.418;2023-05-07T05:47:27;6.65;;;3.35;;
17574;SDS011;8906;43.590;1.418;2023-05-07T05:49:55;5.32;;;2.85;;
17574;SDS011;8906;43.590;1.418;2023-05-07T05:52:22;9.10;;;2.95;;
17574;SDS011;8906;43.590;1.418;2023-05-07T05:54:50;6.68;;;3.17;;
17574;SDS011;8906;43.590;1.418;2023-05-07T05:57:17;7.07;;;3.47;;
17574;SDS011;8906;43.590;1.418;2023-05-07T05:59:45;5.93;;;3.60;;
17574;SDS011;8906;43.590;1.418;2023-05-07T06:02:13;19.85;;;3.85;;
17574;SDS011;8906;43.590;1.418;2023-05-07T06:04:39;9.85;;;4.80;;
17574;SDS011;8906;43.590;1.418;2023-05-07T06:07:07;7.18;;;2.97;;
17574;SDS011;8906;43.590;1.418;2023-05-07T06:09:34;7.68;;;3.40;;
17574;SDS011;8906;43.590;1.418;2023-05-07T06:12:01;5.30;;;3.05;;
17574;SDS011;8906;43.590;1.418;2023-05-07T06:14:28;12.30;;;4.72;;
17574;SDS011;8906;43.590;1.418;2023-05-07T06:16:56;7.25;;;3.40;;
17574;SDS011;8906;43.590;1.418;2023-05-07T06:19:23;4.80;;;2.75;;
17574;SDS011;8906;43.590;1.418;2023-05-07T06:21:51;8.82;;;3.60;;
17574;SDS011;8906;43.590;1.418;2023-05-07T06:24:18;9.52;;;3.63;;
17574;SDS011;8906;43.590;1.418;2023-05-07T06:26:45;9.38;;;4.80;;
17574;SDS011;8906;43.590;1.418;2023-05-07T06:29:12;9.23;;;3.75;;
17574;SDS011;8906;43.590;1.418;2023-05-07T06:31:39;6.75;;;2.88;;
17574;SDS011;8906;43.590;1.418;2023-05-07T06:34:07;11.35;;;3.78;;
17574;SDS011;8906;43.590;1.418;2023-05-07T06:36:35;7.65;;;3.78;;
17574;SDS011;8906;43.590;1.418;2023-05-07T06:39:01;7.93;;;3.72;;
17574;SDS011;8906;43.590;1.418;2023-05-07T06:41:28;10.60;;;4.43;;
17574;SDS011;8906;43.590;1.418;2023-05-07T06:43:55;6.70;;;2.95;;
17574;SDS011;8906;43.590;1.418;2023-05-07T06:46:22;6.93;;;4.13;;
17574;SDS011;8906;43.590;1.418;2023-05-07T06:48:49;7.45;;;4.30;;
17574;SDS011;8906;43.590;1.418;2023-05-07T06:51:18;7.70;;;3.38;;
17574;SDS011;8906;43.590;1.418;2023-05-07T06:53:45;7.00;;;2.83;;
17574;SDS011;8906;43.590;1.418;2023-05-07T06:56:12;7.43;;;3.40;;
17574;SDS011;8906;43.590;1.418;2023-05-07T06:58:39;11.20;;;3.28;;
17574;SDS011;8906;43.590;1.418;2023-05-07T07:01:06;8.52;;;3.78;;
17574;SDS011;8906;43.590;1.418;2023-05-07T07:03:33;9.90;;;3.85;;
17574;SDS011;8906;43.590;1.418;2023-05-07T07:06:00;10.45;;;4.28;;
17574;SDS011;8906;43.590;1.418;2023-05-07T07:08:29;7.15;;;3.60;;
17574;SDS011;8906;43.590;1.418;2023-05-07T07:10:55;12.70;;;4.03;;
17574;SDS011;8906;43.590;1.418;2023-05-07T07:13:22;10.82;;;4.07;;
17574;SDS011;8906;43.590;1.418;2023-05-07T07:15:49;15.20;;;4.45;;
17574;SDS011;8906;43.590;1.418;2023-05-07T07:18:16;8.00;;;3.67;;
17574;SDS011;8906;43.590;1.418;2023-05-07T07:20:43;8.68;;;3.45;;
17574;SDS011;8906;43.590;1.418;2023-05-07T07:23:10;10.07;;;3.10;;
17574;SDS011;8906;43.590;1.418;2023-05-07T07:25:38;11.52;;;3.88;;
17574;SDS011;8906;43.590;1.418;2023-05-07T07:28:05;6.38;;;3.42;;
17574;SDS011;8906;43.590;1.418;2023-05-07T07:30:33;7.65;;;3.70;;
17574;SDS011;8906;43.590;1.418;2023-05-07T07:33:00;5.60;;;2.95;;
17574;SDS011;8906;43.590;1.418;2023-05-07T07:35:28;7.50;;;4.63;;
17574;SDS011;8906;43.590;1.418;2023-05-07T07:37:55;12.70;;;4.00;;
17574;SDS011;8906;43.590;1.418;2023-05-07T07:40:22;8.38;;;4.35;;
17574;SDS011;8906;43.590;1.418;2023-05-07T07:42:50;10.02;;;3.45;;
17574;SDS011;8906;43.590;1.418;2023-05-07T07:45:17;11.25;;;4.50;;
17574;SDS011;8906;43.590;1.418;2023-05-07T07:47:44;9.20;;;3.60;;
17574;SDS011;8906;43.590;1.418;2023-05-07T07:50:11;9.13;;;4.57;;
17574;SDS011;8906;43.590;1.418;2023-05-07T07:52:38;6.63;;;3.05;;
17574;SDS011;8906;43.590;1.418;2023-05-07T07:55:06;10.60;;;4.70;;
17574;SDS011;8906;43.590;1.418;2023-05-07T07:57:33;7.07;;;3.03;;
17574;SDS011;8906;43.590;1.418;2023-05-07T08:00:02;8.98;;;4.85;;
17574;SDS011;8906;43.590;1.418;2023-05-07T08:02:29;12.82;;;3.42;;
17574;SDS011;8906;43.590;1.418;2023-05-07T08:04:56;8.43;;;3.67;;
17574;SDS011;8906;43.590;1.418;2023-05-07T08:07:23;10.43;;;4.18;;
17574;SDS011;8906;43.590;1.418;2023-05-07T08:09:50;5.85;;;3.10;;
17574;SDS011;8906;43.590;1.418;2023-05-07T08:12:17;7.47;;;3.95;;
17574;SDS011;8906;43.590;1.418;2023-05-07T08:14:44;6.72;;;3.42;;
17574;SDS011;8906;43.590;1.418;2023-05-07T08:17:12;13.43;;;3.47;;
17574;SDS011;8906;43.590;1.418;2023-05-07T08:19:40;5.90;;;2.92;;
17574;SDS011;8906;43.590;1.418;2023-05-07T08:22:08;6.28;;;3.13;;
17574;SDS011;8906;43.590;1.418;2023-05-07T08:24:35;8.98;;;3.60;;
17574;SDS011;8906;43.590;1.418;2023-05-07T08:27:02;4.50;;;3.78;;
17574;SDS011;8906;43.590;1.418;2023-05-07T08:29:29;7.93;;;3.03;;
17574;SDS011;8906;43.590;1.418;2023-05-07T08:31:56;8.93;;;3.92;;
17574;SDS011;8906;43.590;1.418;2023-05-07T08:34:24;9.60;;;4.15;;
17574;SDS011;8906;43.590;1.418;2023-05-07T08:36:51;7.90;;;3.35;;
17574;SDS011;8906;43.590;1.418;2023-05-07T08:39:18;11.27;;;4.65;;
17574;SDS011;8906;43.590;1.418;2023-05-07T08:41:45;5.55;;;3.00;;
17574;SDS011;8906;43.590;1.418;2023-05-07T08:44:13;9.32;;;4.53;;
17574;SDS011;8906;43.590;1.418;2023-05-07T08:46:40;9.10;;;2.75;;
17574;SDS011;8906;43.590;1.418;2023-05-07T08:49:08;10.27;;;3.60;;
17574;SDS011;8906;43.590;1.418;2023-05-07T08:51:37;9.60;;;4.32;;
17574;SDS011;8906;43.590;1.418;2023-05-07T08:54:04;7.10;;;3.03;;
17574;SDS011;8906;43.590;1.418;2023-05-07T08:56:31;10.43;;;3.58;;
17574;SDS011;8906;43.590;1.418;2023-05-07T08:58:58;11.52;;;3.85;;
17574;SDS011;8906;43.590;1.418;2023-05-07T09:01:25;7.90;;;3.85;;
17574;SDS011;8906;43.590;1.418;2023-05-07T09:03:52;5.45;;;3.05;;
17574;SDS011;8906;43.590;1.418;2023-05-07T09:06:19;9.80;;;3.38;;
17574;SDS011;8906;43.590;1.418;2023-05-07T09:08:51;6.03;;;2.83;;
17574;SDS011;8906;43.590;1.418;2023-05-07T09:11:19;5.55;;;3.20;;
17574;SDS011;8906;43.590;1.418;2023-05-07T09:13:47;10.43;;;3.50;;
17574;SDS011;8906;43.590;1.418;2023-05-07T09:16:15;6.35;;;3.00;;
17574;SDS011;8906;43.590;1.418;2023-05-07T09:18:42;7.00;;;3.95;;
17574;SDS011;8906;43.590;1.418;2023-05-07T09:21:10;6.97;;;3.47;;
17574;SDS011;8906;43.590;1.418;2023-05-07T09:23:37;6.35;;;2.85;;
17574;SDS011;8906;43.590;1.418;2023-05-07T09:26:06;9.60;;;2.55;;
17574;SDS011;8906;43.590;1.418;2023-05-07T09:28:38;4.15;;;3.08;;
17574;SDS011;8906;43.590;1.418;2023-05-07T09:31:06;6.57;;;3.47;;
17574;SDS011;8906;43.590;1.418;2023-05-07T09:33:33;7.35;;;3.80;;
17574;SDS011;8906;43.590;1.418;2023-05-07T09:36:02;7.85;;;3.13;;
17574;SDS011;8906;43.590;1.418;2023-05-07T09:38:30;7.53;;;3.58;;
17574;SDS011;8906;43.590;1.418;2023-05-07T09:41:04;10.98;;;4.65;;
17574;SDS011;8906;43.590;1.418;2023-05-07T09:43:33;7.68;;;3.20;;
17574;SDS011;8906;43.590;1.418;2023-05-07T09:46:02;7.28;;;4.03;;
17574;SDS011;8906;43.590;1.418;2023-05-07T09:48:31;7.85;;;3.58;;
17574;SDS011;8906;43.590;1.418;2023-05-07T09:51:02;4.10;;;2.67;;
17574;SDS011;8906;43.590;1.418;2023-05-07T09:53:37;6.55;;;3.65;;
17574;SDS011;8906;43.590;1.418;2023-05-07T09:56:06;6.47;;;3.20;;
17574;SDS011;8906;43.590;1.418;2023-05-07T09:58:34;11.02;;;4.18;;
17574;SDS011;8906;43.590;1.418;2023-05-07T10:01:05;9.23;;;3.80;;
17574;SDS011;8906;43.590;1.418;2023-05-07T10:03:32;7.00;;;3.90;;
17574;SDS011;8906;43.590;1.418;2023-05-07T10:06:01;6.70;;;3.10;;
17574;SDS011;8906;43.590;1.418;2023-05-07T10:08:30;8.88;;;4.72;;
17574;SDS011;8906;43.590;1.418;2023-05-07T10:10:57;15.18;;;4.07;;
17574;SDS011;8906;43.590;1.418;2023-05-07T10:13:25;9.15;;;3.45;;
17574;SDS011;8906;43.590;1.418;2023-05-07T10:15:54;7.97;;;3.40;;
17574;SDS011;8906;43.590;1.418;2023-05-07T10:18:21;10.88;;;4.88;;
17574;SDS011;8906;43.590;1.418;2023-05-07T10:20:54;6.80;;;3.63;;
17574;SDS011;8906;43.590;1.418;2023-05-07T10:23:27;10.20;;;4.80;;
17574;SDS011;8906;43.590;1.418;2023-05-07T10:25:56;8.50;;;4.07;;
17574;SDS011;8906;43.590;1.418;2023-05-07T10:28:24;5.70;;;2.53;;
17574;SDS011;8906;43.590;1.418;2023-05-07T10:30:58;7.25;;;3.83;;
17574;SDS011;8906;43.590;1.418;2023-05-07T10:33:34;8.55;;;4.05;;
17574;SDS011;8906;43.590;1.418;2023-05-07T10:36:02;8.65;;;3.67;;
17574;SDS011;8906;43.590;1.418;2023-05-07T10:38:32;9.52;;;3.38;;
17574;SDS011;8906;43.590;1.418;2023-05-07T10:40:59;6.95;;;3.28;;
17574;SDS011;8906;43.590;1.418;2023-05-07T10:43:38;6.82;;;3.70;;
17574;SDS011;8906;43.590;1.418;2023-05-07T10:46:11;6.55;;;3.85;;
17574;SDS011;8906;43.590;1.418;2023-05-07T10:51:41;7.00;;;2.83;;
17574;SDS011;8906;43.590;1.418;2023-05-07T10:54:20;5.45;;;2.90;;
17574;SDS011;8906;43.590;1.418;2023-05-07T10:56:47;7.72;;;3.95;;
17574;SDS011;8906;43.590;1.418;2023-05-07T10:59:32;4.93;;;3.13;;
17574;SDS011;8906;43.590;1.418;2023-05-07T11:02:07;6.82;;;3.70;;
17574;SDS011;8906;43.590;1.418;2023-05-07T11:04:36;8.50;;;4.57;;
17574;SDS011;8906;43.590;1.418;2023-05-07T11:09:58;9.45;;;3.50;;
17574;SDS011;8906;43.590;1.418;2023-05-07T11:15:36;9.82;;;3.50;;
17574;SDS011;8906;43.590;1.418;2023-05-07T11:18:10;6.35;;;2.70;;
17574;SDS011;8906;43.590;1.418;2023-05-07T11:26:41;9.52;;;3.75;;
17574;SDS011;8906;43.590;1.418;2023-05-07T11:29:13;8.57;;;3.00;;
17574;SDS011;8906;43.590;1.418;2023-05-07T11:31:41;9.10;;;3.20;;
17574;SDS011;8906;43.590;1.418;2023-05-07T11:34:10;6.97;;;2.75;;
17574;SDS011;8906;43.590;1.418;2023-05-07T11:36:41;8.23;;;3.58;;
17574;SDS011;8906;43.590;1.418;2023-05-07T11:39:25;7.70;;;3.65;;
17574;SDS011;8906;43.590;1.418;2023-05-07T11:41:53;7.07;;;3.15;;
17574;SDS011;8906;43.590;1.418;2023-05-07T11:44:20;4.82;;;3.35;;
17574;SDS011;8906;43.590;1.418;2023-05-07T11:46:47;8.30;;;3.03;;
17574;SDS011;8906;43.590;1.418;2023-05-07T11:49:16;6.57;;;3.67;;
17574;SDS011;8906;43.590;1.418;2023-05-07T11:51:43;6.47;;;2.65;;
17574;SDS011;8906;43.590;1.418;2023-05-07T11:54:11;7.40;;;2.60;;
17574;SDS011;8906;43.590;1.418;2023-05-07T11:56:43;4.88;;;2.80;;
17574;SDS011;8906;43.590;1.418;2023-05-07T11:59:11;9.20;;;2.72;;
17574;SDS011;8906;43.590;1.418;2023-05-07T12:01:38;8.40;;;3.30;;
17574;SDS011;8906;43.590;1.418;2023-05-07T12:04:05;8.88;;;3.72;;
17574;SDS011;8906;43.590;1.418;2023-05-07T12:06:35;6.72;;;2.60;;
17574;SDS011;8906;43.590;1.418;2023-05-07T12:09:03;3.28;;;2.13;;
17574;SDS011;8906;43.590;1.418;2023-05-07T12:11:32;8.98;;;3.03;;
17574;SDS011;8906;43.590;1.418;2023-05-07T12:13:59;6.32;;;3.08;;
17574;SDS011;8906;43.590;1.418;2023-05-07T12:16:26;7.93;;;3.17;;
17574;SDS011;8906;43.590;1.418;2023-05-07T12:18:53;5.70;;;2.85;;
17574;SDS011;8906;43.590;1.418;2023-05-07T12:21:21;6.68;;;2.95;;
17574;SDS011;8906;43.590;1.418;2023-05-07T12:23:49;6.88;;;3.08;;
17574;SDS011;8906;43.590;1.418;2023-05-07T12:26:18;6.30;;;3.03;;
17574;SDS011;8906;43.590;1.418;2023-05-07T12:28:45;5.82;;;2.42;;
17574;SDS011;8906;43.590;1.418;2023-05-07T12:31:13;7.20;;;2.90;;
17574;SDS011;8906;43.590;1.418;2023-05-07T12:33:41;3.95;;;1.70;;
17574;SDS011;8906;43.590;1.418;2023-05-07T12:36:08;5.60;;;3.15;;
17574;SDS011;8906;43.590;1.418;2023-05-07T12:38:38;5.22;;;2.17;;
17574;SDS011;8906;43.590;1.418;2023-05-07T12:41:08;4.88;;;2.08;;
17574;SDS011;8906;43.590;1.418;2023-05-07T12:43:37;4.78;;;2.65;;
17574;SDS011;8906;43.590;1.418;2023-05-07T12:46:04;5.28;;;2.20;;
17574;SDS011;8906;43.590;1.418;2023-05-07T12:48:32;4.38;;;2.10;;
17574;SDS011;8906;43.590;1.418;2023-05-07T12:51:01;4.85;;;1.98;;
17574;SDS011;8906;43.590;1.418;2023-05-07T12:53:29;5.88;;;2.20;;
17574;SDS011;8906;43.590;1.418;2023-05-07T12:55:56;4.65;;;2.15;;
17574;SDS011;8906;43.590;1.418;2023-05-07T12:58:26;3.30;;;2.28;;
17574;SDS011;8906;43.590;1.418;2023-05-07T13:00:54;4.90;;;1.95;;
17574;SDS011;8906;43.590;1.418;2023-05-07T13:03:26;7.63;;;2.35;;
17574;SDS011;8906;43.590;1.418;2023-05-07T13:05:54;5.45;;;2.10;;
17574;SDS011;8906;43.590;1.418;2023-05-07T13:08:29;4.82;;;2.65;;
17574;SDS011;8906;43.590;1.418;2023-05-07T13:10:57;5.22;;;1.92;;
17574;SDS011;8906;43.590;1.418;2023-05-07T13:13:29;2.80;;;1.60;;
17574;SDS011;8906;43.590;1.418;2023-05-07T13:15:56;4.97;;;2.35;;
17574;SDS011;8906;43.590;1.418;2023-05-07T13:18:24;5.40;;;2.03;;
17574;SDS011;8906;43.590;1.418;2023-05-07T13:20:52;7.30;;;2.70;;
17574;SDS011;8906;43.590;1.418;2023-05-07T13:23:18;5.95;;;3.00;;
17574;SDS011;8906;43.590;1.418;2023-05-07T13:25:45;5.53;;;2.60;;
17574;SDS011;8906;43.590;1.418;2023-05-07T13:28:13;3.70;;;2.85;;
17574;SDS011;8906;43.590;1.418;2023-05-07T13:30:41;4.57;;;1.92;;
17574;SDS011;8906;43.590;1.418;2023-05-07T13:33:08;5.57;;;2.63;;
17574;SDS011;8906;43.590;1.418;2023-05-07T13:35:35;4.10;;;2.22;;
17574;SDS011;8906;43.590;1.418;2023-05-07T13:38:02;6.28;;;2.28;;
17574;SDS011;8906;43.590;1.418;2023-05-07T13:40:31;5.63;;;2.88;;
17574;SDS011;8906;43.590;1.418;2023-05-07T13:42:58;4.22;;;1.90;;
17574;SDS011;8906;43.590;1.418;2023-05-07T13:45:27;4.50;;;2.47;;
17574;SDS011;8906;43.590;1.418;2023-05-07T13:47:56;4.28;;;2.17;;
17574;SDS011;8906;43.590;1.418;2023-05-07T13:50:23;4.05;;;2.42;;
17574;SDS011;8906;43.590;1.418;2023-05-07T13:52:51;7.20;;;2.13;;
17574;SDS011;8906;43.590;1.418;2023-05-07T13:55:19;3.20;;;2.17;;
17574;SDS011;8906;43.590;1.418;2023-05-07T13:57:46;4.18;;;2.65;;
17574;SDS011;8906;43.590;1.418;2023-05-07T14:00:13;4.55;;;2.10;;
17574;SDS011;8906;43.590;1.418;2023-05-07T14:02:41;3.70;;;2.22;;
17574;SDS011;8906;43.590;1.418;2023-05-07T14:05:10;2.55;;;1.92;;
17574;SDS011;8906;43.590;1.418;2023-05-07T14:07:38;5.40;;;2.20;;
17574;SDS011;8906;43.590;1.418;2023-05-07T14:10:05;5.03;;;2.38;;
17574;SDS011;8906;43.590;1.418;2023-05-07T14:12:33;7.13;;;2.45;;
17574;SDS011;8906;43.590;1.418;2023-05-07T14:15:00;4.35;;;1.88;;
17574;SDS011;8906;43.590;1.418;2023-05-07T14:17:27;5.07;;;2.28;;
17574;SDS011;8906;43.590;1.418;2023-05-07T14:19:54;8.93;;;3.08;;
17574;SDS011;8906;43.590;1.418;2023-05-07T14:22:22;3.10;;;1.52;;
17574;SDS011;8906;43.590;1.418;2023-05-07T14:24:49;2.83;;;1.73;;
17574;SDS011;8906;43.590;1.418;2023-05-07T14:27:16;5.95;;;2.45;;
17574;SDS011;8906;43.590;1.418;2023-05-07T14:29:43;5.00;;;1.52;;
17574;SDS011;8906;43.590;1.418;2023-05-07T14:32:10;3.47;;;2.10;;
17574;SDS011;8906;43.590;1.418;2023-05-07T14:34:38;3.08;;;1.48;;
17574;SDS011;8906;43.590;1.418;2023-05-07T14:37:05;6.43;;;2.63;;
17574;SDS011;8906;43.590;1.418;2023-05-07T14:39:33;4.88;;;2.15;;
17574;SDS011;8906;43.590;1.418;2023-05-07T14:42:00;2.67;;;2.28;;
17574;SDS011;8906;43.590;1.418;2023-05-07T14:44:27;8.75;;;2.45;;
17574;SDS011;8906;43.590;1.418;2023-05-07T14:46:54;6.47;;;1.60;;
17574;SDS011;8906;43.590;1.418;2023-05-07T14:49:21;3.67;;;2.25;;
17574;SDS011;8906;43.590;1.418;2023-05-07T14:51:48;2.00;;;1.27;;
17574;SDS011;8906;43.590;1.418;2023-05-07T14:54:15;4.70;;;2.10;;
17574;SDS011;8906;43.590;1.418;2023-05-07T14:56:44;5.18;;;1.85;;
17574;SDS011;8906;43.590;1.418;2023-05-07T14:59:11;4.38;;;1.95;;
17574;SDS011;8906;43.590;1.418;2023-05-07T15:01:38;4.75;;;2.05;;
17574;SDS011;8906;43.590;1.418;2023-05-07T15:04:10;2.97;;;1.50;;
17574;SDS011;8906;43.590;1.418;2023-05-07T15:06:37;4.10;;;2.17;;
17574;SDS011;8906;43.590;1.418;2023-05-07T15:09:04;4.20;;;1.80;;
17574;SDS011;8906;43.590;1.418;2023-05-07T15:11:33;4.47;;;1.90;;
17574;SDS011;8906;43.590;1.418;2023-05-07T15:14:01;3.90;;;2.03;;
17574;SDS011;8906;43.590;1.418;2023-05-07T15:16:28;7.38;;;2.47;;
17574;SDS011;8906;43.590;1.418;2023-05-07T15:18:55;8.32;;;2.92;;